Stations météo

réclame
Mon MeteoGroup
Beitem, Belgique (6414): Température de l'air & dewpoint: 12.11.2018 05:00:00 - 18.11.2018 05:00:00 (CET)Beitem, Belgique (6414): Vitesse du vent & gusts: 12.11.2018 05:00:00 - 18.11.2018 05:00:00 (CET)Beitem, Belgique (6414): Direction du vent: 12.11.2018 05:00:00 - 18.11.2018 05:00:00 (CET)Beitem, Belgique (6414): reduced air pressure: 12.11.2018 05:00:00 - 18.11.2018 05:00:00 (CET)Beitem, Belgique (6414): Ensoleillement: 12.11.2018 05:00:00 - 18.11.2018 05:00:00 (CET)Beitem, Belgique (6414): Quantités de précipitations: 12.11.2018 05:00:00 - 18.11.2018 05:00:00 (CET)
Date & Time tt [°C] td [°C] ff [km/h] ff [knt] fx [km/h] fx [knt] dd ppp [hPa] sd [min] rr [mm]
18.11.2018 05:00:00 - - - - - - - - - -
18.11.2018 04:00:00 2,3 -0,2 14 8 22 12 ENE 1028,5 0 0,0
18.11.2018 03:00:00 2,5 0,0 13 7 22 12 ENE 1028,4 0 0,0
18.11.2018 02:00:00 3,3 0,2 14 8 24 13 E 1028,5 0 0,0
18.11.2018 01:00:00 3,6 0,4 14 8 22 12 ENE 1028,5 0 0,0
18.11.2018 00:00:00 4,0 1,0 16 8 26 14 E 1028,5 0 0,0
17.11.2018 23:00:00 4,2 1,7 16 9 21 12 E 1028,5 0 0,0
17.11.2018 22:00:00 4,7 2,2 14 8 24 13 ENE 1028,3 0 0,0
17.11.2018 21:00:00 5,0 2,5 14 7 22 12 ENE 1028,4 0 0,0
17.11.2018 20:00:00 6,0 2,4 14 8 27 15 ENE 1028,1 0 0,0
17.11.2018 19:00:00 6,4 2,1 14 8 24 13 E 1027,9 0 0,0
17.11.2018 18:00:00 6,9 2,6 15 8 25 14 ENE 1027,9 0 0,0
17.11.2018 17:00:00 7,7 3,2 14 8 25 14 ENE 1027,5 - -
17.11.2018 16:00:00 8,6 3,6 16 8 30 16 E 1027,3 60 0,0
17.11.2018 15:00:00 8,6 3,5 19 10 34 18 E 1027,5 60 0,0
17.11.2018 14:00:00 8,4 3,7 18 10 29 16 E 1027,7 60 0,0
17.11.2018 13:00:00 7,5 3,7 18 10 24 13 E 1028,1 60 0,0
17.11.2018 12:00:00 6,0 3,8 14 8 21 12 E 1028,5 60 0,0
17.11.2018 11:00:00 3,6 3,4 11 6 18 10 ENE 1028,7 60 0,0
17.11.2018 10:00:00 2,4 2,4 9 5 18 10 ENE 1028,5 14 0,0
17.11.2018 09:00:00 1,7 1,7 9 5 14 7 ENE 1028,7 0 0,0
17.11.2018 08:00:00 1,9 1,9 9 5 17 9 ENE 1028,5 0 0,0
17.11.2018 07:00:00 2,3 2,3 11 6 16 8 ENE 1028,5 0 0,0
17.11.2018 06:00:00 2,7 2,7 11 6 19 11 E 1028,4 0 0,0
17.11.2018 05:00:00 3,5 3,5 7 4 11 6 ENE 1028,3 - -
17.11.2018 04:00:00 3,8 3,8 7 4 - - ESE 1028,5 - -
17.11.2018 03:00:00 4,6 4,6 8 5 13 7 ENE 1028,6 0 0,0
17.11.2018 02:00:00 5,1 5,1 9 5 14 8 ENE 1028,4 0 0,0
17.11.2018 01:00:00 5,4 5,4 7 4 13 7 ESE 1028,1 0 0,0
17.11.2018 00:00:00 5,6 5,6 9 5 14 8 SE 1028,2 0 0,0
16.11.2018 23:00:00 6,1 6,1 9 5 14 7 E 1028,1 0 0,0
16.11.2018 22:00:00 6,3 6,3 7 4 15 8 ESE 1028,0 0 0,0
16.11.2018 21:00:00 6,2 6,2 9 5 18 10 ESE 1028,1 0 0,0
16.11.2018 20:00:00 6,1 6,1 8 5 18 10 E 1027,9 0 0,0
16.11.2018 19:00:00 5,9 5,9 14 8 24 13 E 1027,5 0 0,0
16.11.2018 18:00:00 6,2 6,2 10 6 18 10 ESE 1026,9 0 0,0
16.11.2018 17:00:00 6,4 6,4 10 5 16 8 E 1027,2 0 0,0
16.11.2018 16:00:00 6,7 6,7 7 4 - - E 1027,2 - -
16.11.2018 15:00:00 6,8 6,8 9 5 17 9 ESE 1027,1 0 0,0
16.11.2018 14:00:00 6,7 6,7 9 5 16 9 E 1027,5 0 0,0
16.11.2018 13:00:00 6,7 6,7 7 4 13 7 SE 1027,6 0 0,0
16.11.2018 12:00:00 6,4 6,4 7 4 16 8 SSE 1028,0 0 0,0
16.11.2018 11:00:00 6,4 6,4 8 5 18 10 SSE 1027,9 0 0,0
16.11.2018 10:00:00 6,5 6,5 8 4 14 8 SSE 1027,5 0 0,0
16.11.2018 09:00:00 6,6 6,6 7 4 14 7 S 1027,0 0 0,0
16.11.2018 08:00:00 6,5 6,5 8 4 14 8 S 1026,7 0 0,0
16.11.2018 07:00:00 6,5 6,5 7 4 14 7 SSE 1026,3 0 0,0
16.11.2018 06:00:00 6,5 6,5 11 6 18 10 SSE 1025,8 - -
16.11.2018 05:00:00 6,5 6,5 11 6 18 10 S 1025,7 0 0,0
16.11.2018 04:00:00 6,6 6,6 10 6 16 9 SSE 1025,5 0 0,0
16.11.2018 03:00:00 6,6 6,6 11 6 19 10 SSE 1025,6 0 0,0
16.11.2018 02:00:00 6,8 6,8 10 5 18 10 SSE 1025,3 0 0,0
16.11.2018 01:00:00 7,0 7,0 11 6 23 13 S 1025,1 0 0,0
16.11.2018 00:00:00 7,0 7,0 14 7 23 12 S 1024,9 0 0,0
15.11.2018 23:00:00 7,0 7,0 11 6 19 11 S 1024,7 0 0,0
15.11.2018 22:00:00 7,0 7,0 14 7 21 11 S 1024,8 0 0,0
15.11.2018 21:00:00 7,0 7,0 14 8 22 12 S 1024,5 0 0,0
15.11.2018 20:00:00 7,6 7,6 11 6 20 11 S 1024,5 0 0,0
15.11.2018 19:00:00 7,7 7,7 14 8 24 13 S 1024,1 0 0,0
15.11.2018 18:00:00 7,9 7,9 13 7 22 12 S 1023,9 0 0,0
15.11.2018 17:00:00 8,3 8,2 15 8 23 12 SSE 1023,6 0 0,0
15.11.2018 16:00:00 8,6 8,6 10 6 20 11 SSE 1023,5 0 0,0
15.11.2018 15:00:00 8,7 8,5 14 8 22 12 SSE 1023,5 0 0,0
15.11.2018 14:00:00 8,5 8,2 13 7 22 12 S 1023,8 0 0,0
15.11.2018 13:00:00 8,0 7,8 14 8 25 13 S 1024,0 20 0,0
15.11.2018 12:00:00 9,1 7,3 13 7 21 12 SSE 1024,0 60 0,0
15.11.2018 11:00:00 8,9 7,0 14 8 21 12 SSE 1024,4 60 0,0
15.11.2018 10:00:00 7,8 6,5 9 5 19 10 SSE 1024,4 60 0,0
15.11.2018 09:00:00 6,7 6,0 12 6 20 11 S 1024,3 18 0,0
15.11.2018 08:00:00 6,5 6,0 11 6 21 12 S 1024,0 0 0,0
15.11.2018 07:00:00 5,9 5,8 7 4 16 9 S 1023,9 0 0,0
15.11.2018 06:00:00 6,2 6,1 6 3 12 7 SSE 1023,9 0 0,0
15.11.2018 05:00:00 6,1 6,1 5 3 10 5 SSE 1023,9 0 0,0
15.11.2018 04:00:00 6,6 6,3 7 4 12 7 SSE 1023,9 0 0,0
15.11.2018 03:00:00 6,5 6,2 4 2 11 6 SSE 1024,0 0 0,0
15.11.2018 02:00:00 6,9 6,4 8 4 11 6 SSE 1024,3 0 0,0
15.11.2018 01:00:00 7,3 6,7 7 4 12 6 SSE 1024,5 0 0,0
15.11.2018 00:00:00 7,7 6,9 7 4 15 8 SSE 1024,4 0 0,0
14.11.2018 23:00:00 8,0 6,9 9 5 13 7 S 1024,5 0 0,0
14.11.2018 22:00:00 8,2 7,0 7 4 15 8 SSE 1024,5 0 0,0
14.11.2018 21:00:00 8,8 7,2 10 5 16 8 SSE 1024,5 0 0,0
14.11.2018 20:00:00 9,5 7,8 10 5 15 8 SE 1024,7 0 0,0
14.11.2018 19:00:00 9,8 8,1 7 4 10 6 SE 1024,8 0 0,0
14.11.2018 18:00:00 10,9 8,1 7 4 16 8 SE 1024,6 0 0,0
14.11.2018 17:00:00 12,3 8,6 11 6 20 11 SSE 1024,8 50 0,0
14.11.2018 16:00:00 13,4 9,1 14 7 22 12 SSE 1025,1 60 0,0
14.11.2018 15:00:00 13,4 8,9 15 8 24 13 S 1025,5 60 0,0
14.11.2018 14:00:00 13,0 9,1 13 7 22 12 SSE 1025,9 60 0,0
14.11.2018 13:00:00 12,7 9,1 11 6 21 11 S 1026,4 60 0,0
14.11.2018 12:00:00 11,3 9,0 10 6 17 9 SSE 1027,2 60 0,0
14.11.2018 11:00:00 9,3 8,1 8 4 17 9 S 1027,6 60 0,0
14.11.2018 10:00:00 7,0 7,0 7 4 12 6 S 1027,9 60 0,0
14.11.2018 09:00:00 5,6 5,6 6 3 10 6 SSE 1027,7 10 0,0
14.11.2018 08:00:00 5,3 5,3 7 4 9 5 SSE 1027,3 0 0,0
14.11.2018 07:00:00 5,0 5,0 7 4 11 6 S 1027,3 0 0,0
14.11.2018 06:00:00 6,1 6,0 6 4 15 8 S 1027,2 0 0,0
14.11.2018 05:00:00 6,4 6,3 11 6 18 10 SSE 1027,3 - -
14.11.2018 04:00:00 6,8 6,6 7 4 - - S 1028,0 - -
14.11.2018 03:00:00 7,7 7,0 12 7 18 10 S 1028,6 0 0,0
14.11.2018 02:00:00 7,9 7,3 10 6 16 9 S 1028,8 0 0,0
14.11.2018 01:00:00 8,0 7,2 11 6 16 9 S 1028,9 0 0,0
14.11.2018 00:00:00 8,2 7,2 9 5 18 10 SSW 1029,0 0 0,0
13.11.2018 23:00:00 8,5 7,4 9 5 15 8 S 1029,2 0 0,0
13.11.2018 22:00:00 8,8 7,6 11 6 16 9 S 1028,9 0 0,0
13.11.2018 21:00:00 9,9 8,4 10 5 19 11 SSW 1028,4 0 0,0
13.11.2018 20:00:00 11,0 9,5 13 7 24 13 SSW 1028,0 0 0,0
13.11.2018 19:00:00 10,7 9,8 14 8 24 13 SW 1027,8 0 0,0
13.11.2018 18:00:00 10,6 9,4 14 8 28 15 SW 1027,5 0 0,0
13.11.2018 17:00:00 10,9 9,3 13 7 30 16 SW 1026,8 5 0,0
13.11.2018 16:00:00 12,5 9,9 19 10 38 20 SW 1026,0 47 0,0
13.11.2018 15:00:00 12,8 9,8 22 12 39 21 SW 1025,2 60 0,0
13.11.2018 14:00:00 12,6 9,4 23 13 40 21 SW 1024,9 58 0,0
13.11.2018 13:00:00 12,0 9,6 22 12 40 22 SW 1024,7 54 0,0
13.11.2018 12:00:00 11,9 9,4 23 12 38 20 SW 1024,1 60 0,0
13.11.2018 11:00:00 10,4 8,9 19 10 34 18 SSW 1023,4 22 0,2
13.11.2018 10:00:00 9,5 8,3 15 8 37 20 SW 1023,0 0 0,2
13.11.2018 09:00:00 9,4 8,6 19 10 31 17 SW 1021,8 0 0,3
13.11.2018 08:00:00 9,4 8,1 15 8 31 17 WSW 1021,0 0 0,4
13.11.2018 07:00:00 9,7 8,7 18 10 27 15 SSW 1020,4 0 0,0
13.11.2018 06:00:00 9,7 8,8 16 9 28 15 SSW 1019,3 0 0,0
13.11.2018 05:00:00 9,6 8,9 15 8 26 14 SSW 1018,9 0 0,0
13.11.2018 04:00:00 9,2 8,6 14 7 24 13 S 1018,6 0 0,0
13.11.2018 03:00:00 9,4 8,7 13 7 24 13 S 1018,7 0 0,0
13.11.2018 02:00:00 9,8 8,8 16 9 27 15 S 1018,4 0 0,0
13.11.2018 01:00:00 9,6 8,8 14 8 24 13 S 1017,7 0 0,0
13.11.2018 00:00:00 9,6 8,8 17 9 25 13 S 1017,6 0 0,0
12.11.2018 23:00:00 9,5 8,7 18 10 26 14 S 1017,4 0 0,0
12.11.2018 22:00:00 9,8 8,8 16 9 25 14 S 1017,2 0 0,0
12.11.2018 21:00:00 9,8 8,8 16 9 23 13 S 1017,1 0 0,0
12.11.2018 20:00:00 10,0 9,1 16 9 24 13 S 1016,9 0 0,0
12.11.2018 19:00:00 10,2 9,3 14 8 23 12 S 1016,6 0 0,0
12.11.2018 18:00:00 10,5 9,4 13 7 19 11 S 1015,9 0 0,0
12.11.2018 17:00:00 10,9 9,5 14 8 22 12 S 1015,1 - -
12.11.2018 16:00:00 11,7 9,6 13 7 25 14 S 1014,8 23 0,0
12.11.2018 15:00:00 11,9 9,6 13 7 23 13 SSW 1014,3 3 0,0
12.11.2018 14:00:00 11,5 9,9 11 6 20 11 S 1014,1 0 0,0
12.11.2018 13:00:00 11,4 10,0 11 6 15 8 SSW 1013,5 5 0,0
12.11.2018 12:00:00 10,5 10,1 9 5 18 10 SSW 1013,7 0 0,1
12.11.2018 11:00:00 10,2 9,8 9 5 16 9 SSW 1013,1 0 0,6
12.11.2018 10:00:00 10,2 10,2 6 3 9 5 WSW 1012,7 0 0,3
12.11.2018 09:00:00 10,1 10,1 6 3 11 6 SSW 1012,1 0 0,5
12.11.2018 08:00:00 10,2 10,2 7 4 15 8 SW 1011,9 0 1,1
12.11.2018 07:00:00 10,3 10,3 7 4 14 7 S 1011,5 0 0,7
12.11.2018 06:00:00 10,4 10,4 8 5 12 6 S 1011,1 0 1,0
12.11.2018 05:00:00 10,5 10,5 6 3 18 10 S 1010,7 0 0,7

tt = Température de l'air
td = dewpoint
ff = Vitesse du vent
fx = gusts
dd = Direction du vent
ppp = reduced air pressure
sd = Ensoleillement
rr = Quantités de précipitations

stations d'obs. à proximité